sensor_id;sensor_type;location;lat;lon;timestamp;P1;durP1;ratioP1;P2;durP2;ratioP2
19599;SDS011;9947;57.722;12.012;2023-02-15T00:00:27;37.43;;;15.40;;
19599;SDS011;9947;57.722;12.012;2023-02-15T00:03:01;39.57;;;14.07;;
19599;SDS011;9947;57.722;12.012;2023-02-15T00:05:30;35.20;;;14.30;;
19599;SDS011;9947;57.722;12.012;2023-02-15T00:08:05;38.53;;;14.33;;
19599;SDS011;9947;57.722;12.012;2023-02-15T00:10:34;40.13;;;14.97;;
19599;SDS011;9947;57.722;12.012;2023-02-15T00:13:12;35.17;;;14.10;;
19599;SDS011;9947;57.722;12.012;2023-02-15T00:15:41;35.50;;;15.33;;
19599;SDS011;9947;57.722;12.012;2023-02-15T00:18:16;36.83;;;15.73;;
19599;SDS011;9947;57.722;12.012;2023-02-15T00:20:43;34.60;;;14.63;;
19599;SDS011;9947;57.722;12.012;2023-02-15T00:23:16;37.73;;;14.50;;
19599;SDS011;9947;57.722;12.012;2023-02-15T00:25:46;36.83;;;15.00;;
19599;SDS011;9947;57.722;12.012;2023-02-15T00:28:27;34.90;;;14.60;;
19599;SDS011;9947;57.722;12.012;2023-02-15T00:30:54;39.37;;;15.10;;
19599;SDS011;9947;57.722;12.012;2023-02-15T00:33:27;35.77;;;14.67;;
19599;SDS011;9947;57.722;12.012;2023-02-15T00:35:55;36.73;;;13.60;;
19599;SDS011;9947;57.722;12.012;2023-02-15T00:38:32;34.70;;;13.50;;
19599;SDS011;9947;57.722;12.012;2023-02-15T00:41:02;37.60;;;14.90;;
19599;SDS011;9947;57.722;12.012;2023-02-15T00:43:41;34.43;;;15.10;;
19599;SDS011;9947;57.722;12.012;2023-02-15T00:46:10;35.97;;;14.23;;
19599;SDS011;9947;57.722;12.012;2023-02-15T00:48:51;40.60;;;14.60;;
19599;SDS011;9947;57.722;12.012;2023-02-15T00:51:18;35.97;;;14.87;;
19599;SDS011;9947;57.722;12.012;2023-02-15T00:53:52;36.67;;;15.47;;
19599;SDS011;9947;57.722;12.012;2023-02-15T00:56:29;31.97;;;13.53;;
19599;SDS011;9947;57.722;12.012;2023-02-15T00:59:09;38.30;;;13.83;;
19599;SDS011;9947;57.722;12.012;2023-02-15T01:01:39;39.50;;;15.37;;
19599;SDS011;9947;57.722;12.012;2023-02-15T01:04:21;38.87;;;15.43;;
19599;SDS011;9947;57.722;12.012;2023-02-15T01:06:49;36.97;;;15.17;;
19599;SDS011;9947;57.722;12.012;2023-02-15T01:09:22;38.67;;;15.30;;
19599;SDS011;9947;57.722;12.012;2023-02-15T01:11:55;39.33;;;15.40;;
19599;SDS011;9947;57.722;12.012;2023-02-15T01:14:31;39.67;;;15.33;;
19599;SDS011;9947;57.722;12.012;2023-02-15T01:17:05;40.60;;;15.77;;
19599;SDS011;9947;57.722;12.012;2023-02-15T01:19:41;37.80;;;15.63;;
19599;SDS011;9947;57.722;12.012;2023-02-15T01:22:12;36.77;;;14.73;;
19599;SDS011;9947;57.722;12.012;2023-02-15T01:24:51;35.33;;;15.93;;
19599;SDS011;9947;57.722;12.012;2023-02-15T01:27:25;40.77;;;15.93;;
19599;SDS011;9947;57.722;12.012;2023-02-15T01:29:56;38.87;;;15.67;;
19599;SDS011;9947;57.722;12.012;2023-02-15T01:32:30;40.30;;;15.67;;
19599;SDS011;9947;57.722;12.012;2023-02-15T01:34:57;37.40;;;15.87;;
19599;SDS011;9947;57.722;12.012;2023-02-15T01:37:31;38.80;;;15.07;;
19599;SDS011;9947;57.722;12.012;2023-02-15T01:40:06;40.33;;;16.00;;
19599;SDS011;9947;57.722;12.012;2023-02-15T01:42:41;38.70;;;15.50;;
19599;SDS011;9947;57.722;12.012;2023-02-15T01:45:16;39.10;;;15.63;;
19599;SDS011;9947;57.722;12.012;2023-02-15T01:47:56;39.63;;;15.07;;
19599;SDS011;9947;57.722;12.012;2023-02-15T01:50:33;39.70;;;16.07;;
19599;SDS011;9947;57.722;12.012;2023-02-15T01:53:11;41.17;;;15.87;;
19599;SDS011;9947;57.722;12.012;2023-02-15T01:55:43;39.00;;;15.90;;
19599;SDS011;9947;57.722;12.012;2023-02-15T01:58:20;35.07;;;15.07;;
19599;SDS011;9947;57.722;12.012;2023-02-15T02:00:50;38.17;;;16.40;;
19599;SDS011;9947;57.722;12.012;2023-02-15T02:03:25;39.00;;;15.07;;
19599;SDS011;9947;57.722;12.012;2023-02-15T02:06:09;36.47;;;15.53;;
19599;SDS011;9947;57.722;12.012;2023-02-15T02:08:36;41.00;;;16.77;;
19599;SDS011;9947;57.722;12.012;2023-02-15T02:11:12;36.67;;;15.50;;
19599;SDS011;9947;57.722;12.012;2023-02-15T02:13:53;39.63;;;16.10;;
19599;SDS011;9947;57.722;12.012;2023-02-15T02:16:23;40.47;;;16.13;;
19599;SDS011;9947;57.722;12.012;2023-02-15T02:19:05;37.10;;;15.97;;
19599;SDS011;9947;57.722;12.012;2023-02-15T02:22:12;36.77;;;14.67;;
19599;SDS011;9947;57.722;12.012;2023-02-15T02:28:14;36.83;;;14.63;;
19599;SDS011;9947;57.722;12.012;2023-02-15T02:30:57;39.97;;;14.90;;
19599;SDS011;9947;57.722;12.012;2023-02-15T02:33:58;35.37;;;14.60;;
19599;SDS011;9947;57.722;12.012;2023-02-15T02:36:32;36.43;;;15.63;;
19599;SDS011;9947;57.722;12.012;2023-02-15T02:39:17;41.07;;;15.40;;
19599;SDS011;9947;57.722;12.012;2023-02-15T02:42:00;35.63;;;15.40;;
19599;SDS011;9947;57.722;12.012;2023-02-15T02:44:39;38.37;;;16.43;;
19599;SDS011;9947;57.722;12.012;2023-02-15T02:47:16;36.30;;;15.00;;
19599;SDS011;9947;57.722;12.012;2023-02-15T02:49:59;38.17;;;15.63;;
19599;SDS011;9947;57.722;12.012;2023-02-15T02:52:34;41.37;;;15.10;;
19599;SDS011;9947;57.722;12.012;2023-02-15T02:55:08;31.27;;;14.67;;
19599;SDS011;9947;57.722;12.012;2023-02-15T02:57:50;35.37;;;15.33;;
19599;SDS011;9947;57.722;12.012;2023-02-15T03:00:20;36.40;;;15.93;;
19599;SDS011;9947;57.722;12.012;2023-02-15T03:02:58;39.87;;;15.13;;
19599;SDS011;9947;57.722;12.012;2023-02-15T03:05:31;33.10;;;14.73;;
19599;SDS011;9947;57.722;12.012;2023-02-15T03:08:09;40.10;;;15.60;;
19599;SDS011;9947;57.722;12.012;2023-02-15T03:10:44;37.33;;;15.33;;
19599;SDS011;9947;57.722;12.012;2023-02-15T03:13:17;37.77;;;16.00;;
19599;SDS011;9947;57.722;12.012;2023-02-15T03:15:44;44.40;;;16.47;;
19599;SDS011;9947;57.722;12.012;2023-02-15T03:18:38;44.83;;;17.23;;
19599;SDS011;9947;57.722;12.012;2023-02-15T03:21:24;43.67;;;16.93;;
19599;SDS011;9947;57.722;12.012;2023-02-15T03:24:04;43.87;;;16.33;;
19599;SDS011;9947;57.722;12.012;2023-02-15T03:26:36;42.87;;;16.73;;
19599;SDS011;9947;57.722;12.012;2023-02-15T03:29:11;42.17;;;17.70;;
19599;SDS011;9947;57.722;12.012;2023-02-15T03:31:41;40.40;;;17.27;;
19599;SDS011;9947;57.722;12.012;2023-02-15T03:34:17;42.27;;;17.03;;
19599;SDS011;9947;57.722;12.012;2023-02-15T03:36:55;41.50;;;16.83;;
19599;SDS011;9947;57.722;12.012;2023-02-15T03:39:27;43.10;;;17.53;;
19599;SDS011;9947;57.722;12.012;2023-02-15T03:42:07;41.40;;;16.87;;
19599;SDS011;9947;57.722;12.012;2023-02-15T03:44:43;42.33;;;16.30;;
19599;SDS011;9947;57.722;12.012;2023-02-15T03:47:25;41.87;;;16.53;;
19599;SDS011;9947;57.722;12.012;2023-02-15T03:49:57;51.60;;;19.27;;
19599;SDS011;9947;57.722;12.012;2023-02-15T03:52:56;43.87;;;18.30;;
19599;SDS011;9947;57.722;12.012;2023-02-15T03:55:26;47.47;;;18.23;;
19599;SDS011;9947;57.722;12.012;2023-02-15T03:58:01;42.73;;;17.67;;
19599;SDS011;9947;57.722;12.012;2023-02-15T04:00:48;49.50;;;18.73;;
19599;SDS011;9947;57.722;12.012;2023-02-15T04:03:45;46.83;;;18.10;;
19599;SDS011;9947;57.722;12.012;2023-02-15T04:06:24;43.57;;;18.43;;
19599;SDS011;9947;57.722;12.012;2023-02-15T04:08:58;48.43;;;18.30;;
19599;SDS011;9947;57.722;12.012;2023-02-15T04:11:50;46.20;;;18.83;;
19599;SDS011;9947;57.722;12.012;2023-02-15T04:14:23;46.57;;;19.40;;
19599;SDS011;9947;57.722;12.012;2023-02-15T04:17:14;46.53;;;18.60;;
19599;SDS011;9947;57.722;12.012;2023-02-15T04:19:40;48.70;;;18.90;;
19599;SDS011;9947;57.722;12.012;2023-02-15T04:22:32;45.40;;;19.20;;
19599;SDS011;9947;57.722;12.012;2023-02-15T04:25:17;47.23;;;18.80;;
19599;SDS011;9947;57.722;12.012;2023-02-15T04:27:57;50.93;;;20.10;;
19599;SDS011;9947;57.722;12.012;2023-02-15T04:30:25;52.07;;;20.33;;
19599;SDS011;9947;57.722;12.012;2023-02-15T04:32:58;51.07;;;19.23;;
19599;SDS011;9947;57.722;12.012;2023-02-15T04:35:25;56.57;;;21.33;;
19599;SDS011;9947;57.722;12.012;2023-02-15T04:37:59;51.27;;;20.33;;
19599;SDS011;9947;57.722;12.012;2023-02-15T04:40:28;47.23;;;18.57;;
19599;SDS011;9947;57.722;12.012;2023-02-15T04:43:01;47.07;;;18.57;;
19599;SDS011;9947;57.722;12.012;2023-02-15T04:45:28;51.53;;;20.37;;
19599;SDS011;9947;57.722;12.012;2023-02-15T04:48:08;48.83;;;19.57;;
19599;SDS011;9947;57.722;12.012;2023-02-15T04:50:35;54.20;;;20.00;;
19599;SDS011;9947;57.722;12.012;2023-02-15T04:53:08;54.57;;;21.13;;
19599;SDS011;9947;57.722;12.012;2023-02-15T04:55:36;52.30;;;18.73;;
19599;SDS011;9947;57.722;12.012;2023-02-15T04:58:11;52.13;;;19.13;;
19599;SDS011;9947;57.722;12.012;2023-02-15T05:00:45;54.13;;;20.97;;
19599;SDS011;9947;57.722;12.012;2023-02-15T05:03:18;56.80;;;21.33;;
19599;SDS011;9947;57.722;12.012;2023-02-15T05:05:45;54.03;;;19.67;;
19599;SDS011;9947;57.722;12.012;2023-02-15T05:08:18;55.50;;;21.23;;
19599;SDS011;9947;57.722;12.012;2023-02-15T05:10:48;56.57;;;20.63;;
19599;SDS011;9947;57.722;12.012;2023-02-15T05:13:21;57.50;;;20.33;;
19599;SDS011;9947;57.722;12.012;2023-02-15T05:15:48;56.07;;;20.40;;
19599;SDS011;9947;57.722;12.012;2023-02-15T05:18:22;56.97;;;19.60;;
19599;SDS011;9947;57.722;12.012;2023-02-15T05:20:56;55.20;;;21.03;;
19599;SDS011;9947;57.722;12.012;2023-02-15T05:23:30;56.03;;;20.47;;
19599;SDS011;9947;57.722;12.012;2023-02-15T05:25:58;53.27;;;19.83;;
19599;SDS011;9947;57.722;12.012;2023-02-15T05:28:50;56.93;;;19.83;;
19599;SDS011;9947;57.722;12.012;2023-02-15T05:31:23;55.40;;;19.60;;
19599;SDS011;9947;57.722;12.012;2023-02-15T05:33:56;48.90;;;18.70;;
19599;SDS011;9947;57.722;12.012;2023-02-15T05:36:30;54.30;;;20.10;;
19599;SDS011;9947;57.722;12.012;2023-02-15T05:38:57;54.37;;;20.77;;
19599;SDS011;9947;57.722;12.012;2023-02-15T05:41:38;58.33;;;21.03;;
19599;SDS011;9947;57.722;12.012;2023-02-15T05:44:12;51.87;;;20.03;;
19599;SDS011;9947;57.722;12.012;2023-02-15T05:46:45;62.63;;;20.47;;
19599;SDS011;9947;57.722;12.012;2023-02-15T05:49:12;61.37;;;19.90;;
19599;SDS011;9947;57.722;12.012;2023-02-15T05:51:45;55.67;;;19.50;;
19599;SDS011;9947;57.722;12.012;2023-02-15T05:54:12;54.87;;;20.63;;
19599;SDS011;9947;57.722;12.012;2023-02-15T05:56:47;49.17;;;18.77;;
19599;SDS011;9947;57.722;12.012;2023-02-15T05:59:13;53.23;;;19.47;;
19599;SDS011;9947;57.722;12.012;2023-02-15T06:01:47;57.10;;;18.70;;
19599;SDS011;9947;57.722;12.012;2023-02-15T06:04:14;58.37;;;20.13;;
19599;SDS011;9947;57.722;12.012;2023-02-15T06:06:47;58.50;;;19.90;;
19599;SDS011;9947;57.722;12.012;2023-02-15T06:09:14;55.77;;;20.33;;
19599;SDS011;9947;57.722;12.012;2023-02-15T06:11:51;51.37;;;18.90;;
19599;SDS011;9947;57.722;12.012;2023-02-15T06:14:18;52.20;;;19.77;;
19599;SDS011;9947;57.722;12.012;2023-02-15T06:16:51;52.27;;;20.07;;
19599;SDS011;9947;57.722;12.012;2023-02-15T06:19:18;47.40;;;18.30;;
19599;SDS011;9947;57.722;12.012;2023-02-15T06:21:51;50.63;;;19.27;;
19599;SDS011;9947;57.722;12.012;2023-02-15T06:24:20;53.60;;;18.43;;
19599;SDS011;9947;57.722;12.012;2023-02-15T06:26:55;47.93;;;19.10;;
19599;SDS011;9947;57.722;12.012;2023-02-15T06:29:21;49.43;;;18.30;;
19599;SDS011;9947;57.722;12.012;2023-02-15T06:31:55;49.17;;;19.40;;
19599;SDS011;9947;57.722;12.012;2023-02-15T06:34:22;53.93;;;19.33;;
19599;SDS011;9947;57.722;12.012;2023-02-15T06:36:55;54.47;;;19.20;;
19599;SDS011;9947;57.722;12.012;2023-02-15T06:39:35;45.37;;;18.70;;
19599;SDS011;9947;57.722;12.012;2023-02-15T06:42:04;50.03;;;19.23;;
19599;SDS011;9947;57.722;12.012;2023-02-15T06:44:37;48.57;;;18.43;;
19599;SDS011;9947;57.722;12.012;2023-02-15T06:47:10;53.60;;;18.33;;
19599;SDS011;9947;57.722;12.012;2023-02-15T06:49:37;51.67;;;18.17;;
19599;SDS011;9947;57.722;12.012;2023-02-15T06:52:10;46.00;;;18.47;;
19599;SDS011;9947;57.722;12.012;2023-02-15T06:54:37;48.07;;;19.77;;
19599;SDS011;9947;57.722;12.012;2023-02-15T06:57:12;50.53;;;18.07;;
19599;SDS011;9947;57.722;12.012;2023-02-15T06:59:38;45.93;;;17.50;;
19599;SDS011;9947;57.722;12.012;2023-02-15T07:02:13;47.37;;;18.80;;
19599;SDS011;9947;57.722;12.012;2023-02-15T07:04:40;42.80;;;18.70;;
19599;SDS011;9947;57.722;12.012;2023-02-15T07:07:16;44.33;;;19.90;;
19599;SDS011;9947;57.722;12.012;2023-02-15T07:09:43;46.80;;;18.60;;
19599;SDS011;9947;57.722;12.012;2023-02-15T07:12:18;48.53;;;18.23;;
19599;SDS011;9947;57.722;12.012;2023-02-15T07:15:02;42.37;;;17.97;;
19599;SDS011;9947;57.722;12.012;2023-02-15T07:17:36;46.10;;;17.80;;
19599;SDS011;9947;57.722;12.012;2023-02-15T07:20:04;46.20;;;19.57;;
19599;SDS011;9947;57.722;12.012;2023-02-15T07:22:39;43.13;;;17.83;;
19599;SDS011;9947;57.722;12.012;2023-02-15T07:25:07;47.83;;;18.23;;
19599;SDS011;9947;57.722;12.012;2023-02-15T07:27:44;45.10;;;18.00;;
19599;SDS011;9947;57.722;12.012;2023-02-15T07:30:11;47.40;;;17.70;;
19599;SDS011;9947;57.722;12.012;2023-02-15T07:32:46;49.07;;;18.83;;
19599;SDS011;9947;57.722;12.012;2023-02-15T07:35:31;46.90;;;18.93;;
19599;SDS011;9947;57.722;12.012;2023-02-15T07:38:11;45.27;;;19.10;;
19599;SDS011;9947;57.722;12.012;2023-02-15T07:40:38;51.00;;;18.90;;
19599;SDS011;9947;57.722;12.012;2023-02-15T07:43:13;46.27;;;18.03;;
19599;SDS011;9947;57.722;12.012;2023-02-15T07:45:40;49.23;;;18.37;;
19599;SDS011;9947;57.722;12.012;2023-02-15T07:48:13;47.53;;;18.53;;
19599;SDS011;9947;57.722;12.012;2023-02-15T07:50:40;48.27;;;18.13;;
19599;SDS011;9947;57.722;12.012;2023-02-15T07:53:13;43.13;;;17.97;;
19599;SDS011;9947;57.722;12.012;2023-02-15T07:55:40;55.43;;;17.83;;
19599;SDS011;9947;57.722;12.012;2023-02-15T07:58:14;47.87;;;17.67;;
19599;SDS011;9947;57.722;12.012;2023-02-15T08:00:41;52.13;;;18.10;;
19599;SDS011;9947;57.722;12.012;2023-02-15T08:03:26;48.20;;;17.97;;
19599;SDS011;9947;57.722;12.012;2023-02-15T08:05:55;55.10;;;19.00;;
19599;SDS011;9947;57.722;12.012;2023-02-15T08:08:30;47.30;;;18.03;;
19599;SDS011;9947;57.722;12.012;2023-02-15T08:11:00;47.37;;;17.83;;
19599;SDS011;9947;57.722;12.012;2023-02-15T08:13:55;56.57;;;18.70;;
19599;SDS011;9947;57.722;12.012;2023-02-15T08:16:30;48.27;;;18.03;;
19599;SDS011;9947;57.722;12.012;2023-02-15T08:19:06;47.47;;;18.10;;
19599;SDS011;9947;57.722;12.012;2023-02-15T08:21:41;55.07;;;18.83;;
19599;SDS011;9947;57.722;12.012;2023-02-15T08:24:09;51.43;;;19.03;;
19599;SDS011;9947;57.722;12.012;2023-02-15T08:26:43;53.17;;;19.33;;
19599;SDS011;9947;57.722;12.012;2023-02-15T08:29:13;49.53;;;19.03;;
19599;SDS011;9947;57.722;12.012;2023-02-15T08:31:47;52.47;;;19.37;;
19599;SDS011;9947;57.722;12.012;2023-02-15T08:34:16;59.90;;;19.53;;
19599;SDS011;9947;57.722;12.012;2023-02-15T08:36:58;53.60;;;19.63;;
19599;SDS011;9947;57.722;12.012;2023-02-15T08:39:25;55.17;;;19.77;;
19599;SDS011;9947;57.722;12.012;2023-02-15T08:42:09;47.10;;;18.57;;
19599;SDS011;9947;57.722;12.012;2023-02-15T08:44:37;49.40;;;19.93;;
19599;SDS011;9947;57.722;12.012;2023-02-15T08:47:12;54.50;;;20.77;;
19599;SDS011;9947;57.722;12.012;2023-02-15T08:49:39;55.80;;;20.33;;
19599;SDS011;9947;57.722;12.012;2023-02-15T08:52:12;51.93;;;19.23;;
19599;SDS011;9947;57.722;12.012;2023-02-15T08:54:46;53.17;;;19.53;;
19599;SDS011;9947;57.722;12.012;2023-02-15T08:57:21;53.03;;;18.93;;
19599;SDS011;9947;57.722;12.012;2023-02-15T08:59:50;50.00;;;18.67;;
19599;SDS011;9947;57.722;12.012;2023-02-15T09:02:24;53.43;;;19.43;;
19599;SDS011;9947;57.722;12.012;2023-02-15T09:04:58;52.03;;;20.23;;
19599;SDS011;9947;57.722;12.012;2023-02-15T09:07:31;52.33;;;19.13;;
19599;SDS011;9947;57.722;12.012;2023-02-15T09:10:06;47.37;;;18.93;;
19599;SDS011;9947;57.722;12.012;2023-02-15T09:12:39;52.40;;;19.27;;
19599;SDS011;9947;57.722;12.012;2023-02-15T09:15:16;49.53;;;18.67;;
19599;SDS011;9947;57.722;12.012;2023-02-15T09:17:49;49.00;;;19.10;;
19599;SDS011;9947;57.722;12.012;2023-02-15T09:20:16;55.63;;;19.63;;
19599;SDS011;9947;57.722;12.012;2023-02-15T09:22:51;53.07;;;18.33;;
19599;SDS011;9947;57.722;12.012;2023-02-15T09:25:19;47.93;;;17.13;;
19599;SDS011;9947;57.722;12.012;2023-02-15T09:27:52;51.13;;;18.53;;
19599;SDS011;9947;57.722;12.012;2023-02-15T09:30:21;44.67;;;18.20;;
19599;SDS011;9947;57.722;12.012;2023-02-15T09:33:01;45.70;;;17.23;;
19599;SDS011;9947;57.722;12.012;2023-02-15T09:35:28;56.57;;;18.77;;
19599;SDS011;9947;57.722;12.012;2023-02-15T09:38:01;50.33;;;18.20;;
19599;SDS011;9947;57.722;12.012;2023-02-15T09:40:28;49.17;;;17.93;;
19599;SDS011;9947;57.722;12.012;2023-02-15T09:43:18;47.00;;;17.50;;
19599;SDS011;9947;57.722;12.012;2023-02-15T09:46:01;51.67;;;18.07;;
19599;SDS011;9947;57.722;12.012;2023-02-15T09:48:55;48.90;;;19.47;;
19599;SDS011;9947;57.722;12.012;2023-02-15T09:51:38;49.80;;;19.10;;
19599;SDS011;9947;57.722;12.012;2023-02-15T09:54:31;46.70;;;19.10;;
19599;SDS011;9947;57.722;12.012;2023-02-15T09:57:14;50.17;;;19.63;;
19599;SDS011;9947;57.722;12.012;2023-02-15T09:59:47;47.37;;;19.03;;
19599;SDS011;9947;57.722;12.012;2023-02-15T10:02:35;50.37;;;19.93;;
19599;SDS011;9947;57.722;12.012;2023-02-15T10:05:17;51.17;;;19.07;;
19599;SDS011;9947;57.722;12.012;2023-02-15T10:08:10;50.60;;;19.13;;
19599;SDS011;9947;57.722;12.012;2023-02-15T10:10:57;51.23;;;19.43;;
19599;SDS011;9947;57.722;12.012;2023-02-15T10:13:57;48.73;;;19.20;;
19599;SDS011;9947;57.722;12.012;2023-02-15T10:16:40;48.23;;;19.47;;
19599;SDS011;9947;57.722;12.012;2023-02-15T10:19:35;53.27;;;21.07;;
19599;SDS011;9947;57.722;12.012;2023-02-15T10:22:26;58.47;;;21.00;;
19599;SDS011;9947;57.722;12.012;2023-02-15T10:27:57;53.80;;;20.00;;
19599;SDS011;9947;57.722;12.012;2023-02-15T10:30:31;55.43;;;21.17;;
19599;SDS011;9947;57.722;12.012;2023-02-15T10:33:33;53.23;;;19.93;;
19599;SDS011;9947;57.722;12.012;2023-02-15T10:36:09;49.30;;;19.23;;
19599;SDS011;9947;57.722;12.012;2023-02-15T10:38:54;47.50;;;19.03;;
19599;SDS011;9947;57.722;12.012;2023-02-15T10:41:37;51.80;;;21.57;;
19599;SDS011;9947;57.722;12.012;2023-02-15T10:44:22;58.03;;;21.40;;
19599;SDS011;9947;57.722;12.012;2023-02-15T10:47:17;55.47;;;21.73;;
19599;SDS011;9947;57.722;12.012;2023-02-15T10:50:05;53.17;;;20.30;;
19599;SDS011;9947;57.722;12.012;2023-02-15T10:52:51;51.93;;;20.53;;
19599;SDS011;9947;57.722;12.012;2023-02-15T10:55:28;52.50;;;20.27;;
19599;SDS011;9947;57.722;12.012;2023-02-15T10:58:12;54.00;;;20.13;;
19599;SDS011;9947;57.722;12.012;2023-02-15T11:00:46;49.37;;;20.43;;
19599;SDS011;9947;57.722;12.012;2023-02-15T11:03:33;52.33;;;20.33;;
19599;SDS011;9947;57.722;12.012;2023-02-15T11:06:10;57.00;;;21.00;;
19599;SDS011;9947;57.722;12.012;2023-02-15T11:08:52;48.97;;;19.93;;
19599;SDS011;9947;57.722;12.012;2023-02-15T11:11:23;49.97;;;19.67;;
19599;SDS011;9947;57.722;12.012;2023-02-15T11:14:02;49.03;;;18.33;;
19599;SDS011;9947;57.722;12.012;2023-02-15T11:16:43;48.30;;;19.13;;
19599;SDS011;9947;57.722;12.012;2023-02-15T11:19:14;48.97;;;18.93;;
19599;SDS011;9947;57.722;12.012;2023-02-15T11:21:53;47.43;;;19.20;;
19599;SDS011;9947;57.722;12.012;2023-02-15T11:24:33;47.83;;;19.33;;
19599;SDS011;9947;57.722;12.012;2023-02-15T11:27:05;46.20;;;18.83;;
19599;SDS011;9947;57.722;12.012;2023-02-15T11:29:52;46.40;;;19.27;;
19599;SDS011;9947;57.722;12.012;2023-02-15T11:32:30;52.83;;;18.30;;
19599;SDS011;9947;57.722;12.012;2023-02-15T11:35:10;52.63;;;19.33;;
19599;SDS011;9947;57.722;12.012;2023-02-15T11:37:56;44.97;;;17.13;;
19599;SDS011;9947;57.722;12.012;2023-02-15T11:40:30;40.93;;;16.57;;
19599;SDS011;9947;57.722;12.012;2023-02-15T11:43:11;46.63;;;18.33;;
19599;SDS011;9947;57.722;12.012;2023-02-15T11:45:44;46.77;;;18.03;;
19599;SDS011;9947;57.722;12.012;2023-02-15T11:48:19;49.10;;;17.80;;
19599;SDS011;9947;57.722;12.012;2023-02-15T11:50:47;46.60;;;18.27;;
19599;SDS011;9947;57.722;12.012;2023-02-15T11:53:21;48.43;;;18.70;;
19599;SDS011;9947;57.722;12.012;2023-02-15T11:56:00;42.47;;;17.03;;
19599;SDS011;9947;57.722;12.012;2023-02-15T11:58:35;50.60;;;17.57;;
19599;SDS011;9947;57.722;12.012;2023-02-15T12:01:14;46.07;;;18.13;;
19599;SDS011;9947;57.722;12.012;2023-02-15T12:03:46;46.07;;;17.70;;
19599;SDS011;9947;57.722;12.012;2023-02-15T12:06:23;42.40;;;17.17;;
19599;SDS011;9947;57.722;12.012;2023-02-15T12:09:00;43.33;;;17.27;;
19599;SDS011;9947;57.722;12.012;2023-02-15T12:11:35;45.60;;;17.70;;
19599;SDS011;9947;57.722;12.012;2023-02-15T12:14:11;47.10;;;19.03;;
19599;SDS011;9947;57.722;12.012;2023-02-15T12:16:47;48.67;;;17.53;;
19599;SDS011;9947;57.722;12.012;2023-02-15T12:19:28;47.87;;;18.30;;
19599;SDS011;9947;57.722;12.012;2023-02-15T12:22:05;53.97;;;19.40;;
19599;SDS011;9947;57.722;12.012;2023-02-15T12:24:44;46.43;;;18.87;;
19599;SDS011;9947;57.722;12.012;2023-02-15T12:27:21;47.17;;;19.17;;
19599;SDS011;9947;57.722;12.012;2023-02-15T12:29:58;55.73;;;20.50;;
19599;SDS011;9947;57.722;12.012;2023-02-15T12:32:35;54.13;;;19.97;;
19599;SDS011;9947;57.722;12.012;2023-02-15T12:35:18;49.93;;;18.47;;
19599;SDS011;9947;57.722;12.012;2023-02-15T12:38:02;53.70;;;19.83;;
19599;SDS011;9947;57.722;12.012;2023-02-15T12:40:32;51.77;;;20.30;;
19599;SDS011;9947;57.722;12.012;2023-02-15T12:43:08;52.03;;;19.97;;
19599;SDS011;9947;57.722;12.012;2023-02-15T12:45:52;55.07;;;21.17;;
19599;SDS011;9947;57.722;12.012;2023-02-15T12:48:25;49.40;;;20.37;;
19599;SDS011;9947;57.722;12.012;2023-02-15T12:51:06;50.03;;;20.23;;
19599;SDS011;9947;57.722;12.012;2023-02-15T12:53:48;54.20;;;20.93;;
19599;SDS011;9947;57.722;12.012;2023-02-15T12:56:15;53.33;;;20.57;;
19599;SDS011;9947;57.722;12.012;2023-02-15T12:59:05;61.43;;;22.00;;
19599;SDS011;9947;57.722;12.012;2023-02-15T13:01:32;55.67;;;19.87;;
19599;SDS011;9947;57.722;12.012;2023-02-15T13:04:14;54.23;;;22.07;;
19599;SDS011;9947;57.722;12.012;2023-02-15T13:06:54;57.87;;;20.17;;
19599;SDS011;9947;57.722;12.012;2023-02-15T13:09:26;77.23;;;21.33;;
19599;SDS011;9947;57.722;12.012;2023-02-15T13:12:14;54.57;;;20.13;;
19599;SDS011;9947;57.722;12.012;2023-02-15T13:14:46;57.37;;;21.40;;
19599;SDS011;9947;57.722;12.012;2023-02-15T13:17:23;51.23;;;19.93;;
19599;SDS011;9947;57.722;12.012;2023-02-15T13:19:54;49.93;;;19.70;;
19599;SDS011;9947;57.722;12.012;2023-02-15T13:22:33;53.37;;;20.53;;
19599;SDS011;9947;57.722;12.012;2023-02-15T13:25:12;52.60;;;20.23;;
19599;SDS011;9947;57.722;12.012;2023-02-15T13:27:51;48.10;;;19.33;;
19599;SDS011;9947;57.722;12.012;2023-02-15T13:30:27;50.10;;;19.90;;
19599;SDS011;9947;57.722;12.012;2023-02-15T13:33:12;50.83;;;19.33;;
19599;SDS011;9947;57.722;12.012;2023-02-15T13:35:44;51.20;;;19.27;;
19599;SDS011;9947;57.722;12.012;2023-02-15T13:38:39;52.83;;;19.50;;
19599;SDS011;9947;57.722;12.012;2023-02-15T13:41:14;52.80;;;19.93;;
19599;SDS011;9947;57.722;12.012;2023-02-15T13:43:55;52.60;;;18.57;;
19599;SDS011;9947;57.722;12.012;2023-02-15T13:49:41;51.40;;;18.80;;
19599;SDS011;9947;57.722;12.012;2023-02-15T13:52:25;47.27;;;18.60;;
19599;SDS011;9947;57.722;12.012;2023-02-15T13:55:01;45.73;;;17.80;;
19599;SDS011;9947;57.722;12.012;2023-02-15T13:57:56;46.57;;;18.00;;
19599;SDS011;9947;57.722;12.012;2023-02-15T14:00:41;51.80;;;18.87;;
19599;SDS011;9947;57.722;12.012;2023-02-15T14:03:28;55.83;;;20.20;;
19599;SDS011;9947;57.722;12.012;2023-02-15T14:06:23;51.17;;;19.33;;
19599;SDS011;9947;57.722;12.012;2023-02-15T14:09:14;56.53;;;20.07;;
19599;SDS011;9947;57.722;12.012;2023-02-15T14:11:53;50.00;;;19.73;;
19599;SDS011;9947;57.722;12.012;2023-02-15T14:14:39;47.47;;;18.23;;
19599;SDS011;9947;57.722;12.012;2023-02-15T14:17:34;50.77;;;19.27;;
19599;SDS011;9947;57.722;12.012;2023-02-15T14:20:24;51.77;;;19.83;;
19599;SDS011;9947;57.722;12.012;2023-02-15T14:23:11;47.80;;;19.20;;
19599;SDS011;9947;57.722;12.012;2023-02-15T14:25:55;46.70;;;18.40;;
19599;SDS011;9947;57.722;12.012;2023-02-15T14:28:37;48.47;;;17.07;;
19599;SDS011;9947;57.722;12.012;2023-02-15T14:31:10;46.80;;;18.30;;
19599;SDS011;9947;57.722;12.012;2023-02-15T14:33:50;46.20;;;18.20;;
19599;SDS011;9947;57.722;12.012;2023-02-15T14:36:28;49.60;;;18.47;;
19599;SDS011;9947;57.722;12.012;2023-02-15T14:39:06;45.07;;;17.70;;
19599;SDS011;9947;57.722;12.012;2023-02-15T14:42:07;40.83;;;17.87;;
19599;SDS011;9947;57.722;12.012;2023-02-15T14:44:39;44.47;;;17.73;;
19599;SDS011;9947;57.722;12.012;2023-02-15T14:47:21;49.40;;;19.13;;
19599;SDS011;9947;57.722;12.012;2023-02-15T14:49:55;51.97;;;18.30;;
19599;SDS011;9947;57.722;12.012;2023-02-15T14:52:30;49.00;;;18.87;;
19599;SDS011;9947;57.722;12.012;2023-02-15T14:54:57;53.60;;;19.27;;
19599;SDS011;9947;57.722;12.012;2023-02-15T14:57:32;47.50;;;17.50;;
19599;SDS011;9947;57.722;12.012;2023-02-15T15:00:01;45.07;;;18.20;;
19599;SDS011;9947;57.722;12.012;2023-02-15T15:02:49;47.70;;;18.93;;
19599;SDS011;9947;57.722;12.012;2023-02-15T15:05:20;47.33;;;18.33;;
19599;SDS011;9947;57.722;12.012;2023-02-15T15:07:59;45.57;;;18.10;;
19599;SDS011;9947;57.722;12.012;2023-02-15T15:10:37;49.57;;;19.93;;
19599;SDS011;9947;57.722;12.012;2023-02-15T15:22:38;49.97;;;18.50;;
19599;SDS011;9947;57.722;12.012;2023-02-15T15:25:10;55.57;;;19.37;;
19599;SDS011;9947;57.722;12.012;2023-02-15T15:31:18;51.87;;;17.70;;
19599;SDS011;9947;57.722;12.012;2023-02-15T15:34:13;55.13;;;18.33;;
19599;SDS011;9947;57.722;12.012;2023-02-15T15:37:09;45.30;;;17.90;;